createdAt,value
2018-08-17T00:00:59.183Z,10.80
2018-08-17T00:03:27.895Z,8.33
2018-08-17T00:05:56.473Z,10.40
2018-08-17T00:08:25.070Z,11.53
2018-08-17T00:10:53.626Z,13.77
2018-08-17T00:13:22.216Z,12.17
2018-08-17T00:15:50.922Z,11.77
2018-08-17T00:18:19.670Z,11.10
2018-08-17T00:20:48.265Z,13.17
2018-08-17T00:23:16.915Z,15.50
2018-08-17T00:25:45.565Z,9.90
2018-08-17T00:28:14.344Z,10.00
2018-08-17T00:30:43.113Z,10.57
2018-08-17T00:33:11.712Z,10.03
2018-08-17T00:35:40.359Z,11.33
2018-08-17T00:38:08.998Z,13.73
2018-08-17T00:40:37.588Z,12.47
2018-08-17T00:43:06.255Z,12.87
2018-08-17T00:45:34.839Z,9.07
2018-08-17T00:48:03.672Z,12.30
2018-08-17T00:50:32.401Z,13.70
2018-08-17T00:53:01.885Z,14.87
2018-08-17T00:55:30.514Z,15.53
2018-08-17T00:57:59.403Z,13.03
2018-08-17T01:00:28.045Z,12.83
2018-08-17T01:02:56.614Z,15.20
2018-08-17T01:05:25.153Z,18.33
2018-08-17T01:07:53.931Z,17.80
2018-08-17T01:10:22.501Z,12.97
2018-08-17T01:12:51.111Z,19.83
2018-08-17T01:15:19.720Z,14.97
2018-08-17T01:17:48.359Z,14.37
2018-08-17T01:20:17.058Z,12.67
2018-08-17T01:22:45.686Z,17.20
2018-08-17T01:25:14.459Z,16.37
2018-08-17T01:27:43.029Z,11.00
2018-08-17T01:30:11.667Z,13.00
2018-08-17T01:32:40.581Z,11.97
2018-08-17T01:35:09.169Z,11.37
2018-08-17T01:37:37.724Z,10.13
2018-08-17T01:40:07.244Z,11.40
2018-08-17T01:42:35.768Z,17.77
2018-08-17T01:45:04.522Z,12.67
2018-08-17T01:47:33.080Z,18.77
2018-08-17T01:50:01.858Z,13.37
2018-08-17T01:52:30.449Z,14.97
2018-08-17T01:54:59.095Z,15.77
2018-08-17T01:57:27.776Z,18.57
2018-08-17T01:59:56.526Z,12.00
2018-08-17T02:02:25.089Z,13.03
2018-08-17T02:04:53.830Z,12.57
2018-08-17T02:07:22.490Z,15.10
2018-08-17T02:09:51.071Z,16.07
2018-08-17T02:12:19.695Z,9.23
2018-08-17T02:14:48.354Z,13.77
2018-08-17T02:17:16.852Z,10.17
2018-08-17T02:19:46.625Z,14.73
2018-08-17T02:22:15.224Z,13.50
2018-08-17T02:24:43.760Z,13.33
2018-08-17T02:27:12.262Z,20.03
2018-08-17T02:29:41.001Z,11.40
2018-08-17T02:32:09.684Z,9.03
2018-08-17T02:34:38.300Z,12.73
2018-08-17T02:37:06.823Z,15.07
2018-08-17T02:39:35.432Z,15.77
2018-08-17T02:42:04.177Z,16.00
2018-08-17T02:44:32.912Z,13.00
2018-08-17T02:47:01.446Z,13.37
2018-08-17T02:49:30.060Z,13.27
2018-08-17T02:51:58.727Z,14.87
2018-08-17T02:54:27.355Z,9.90
2018-08-17T02:56:55.922Z,13.07
2018-08-17T02:59:24.448Z,9.13
2018-08-17T03:01:53.024Z,10.03
2018-08-17T03:04:21.684Z,12.13
2018-08-17T03:06:50.234Z,12.77
2018-08-17T03:09:18.768Z,15.60
2018-08-17T03:11:47.353Z,12.67
2018-08-17T03:14:16.022Z,13.63
2018-08-17T03:16:44.611Z,10.97
2018-08-17T03:19:13.255Z,15.03
2018-08-17T03:21:41.891Z,11.03
2018-08-17T03:24:10.851Z,12.90
2018-08-17T03:26:40.373Z,14.13
2018-08-17T03:29:09.092Z,16.80
2018-08-17T03:31:37.769Z,10.50
2018-08-17T03:34:06.514Z,15.17
2018-08-17T03:36:35.185Z,11.07
2018-08-17T03:39:04.605Z,9.00
2018-08-17T03:41:33.151Z,12.83
2018-08-17T03:44:01.735Z,16.23
2018-08-17T03:46:30.349Z,10.97
2018-08-17T03:48:59.945Z,12.77
2018-08-17T03:51:28.724Z,8.83
2018-08-17T03:53:57.358Z,14.00
2018-08-17T03:56:25.944Z,10.10
2018-08-17T03:58:54.571Z,15.60
2018-08-17T04:01:23.094Z,13.90
2018-08-17T04:03:51.693Z,13.33
2018-08-17T04:06:20.356Z,11.47
2018-08-17T04:08:49.075Z,12.40
2018-08-17T04:11:17.696Z,14.10
2018-08-17T04:13:46.314Z,8.80
2018-08-17T04:16:18.939Z,13.23
2018-08-17T04:19:04.799Z,14.07
2018-08-17T04:21:33.361Z,12.63
2018-08-17T04:24:02.040Z,11.33
2018-08-17T04:26:30.610Z,13.00
2018-08-17T04:28:59.178Z,12.13
2018-08-17T04:31:27.812Z,10.47
2018-08-17T04:33:56.331Z,13.77
2018-08-17T04:36:24.913Z,16.57
2018-08-17T04:38:53.526Z,10.83
2018-08-17T04:41:22.012Z,9.83
2018-08-17T04:43:50.663Z,12.90
2018-08-17T04:46:20.420Z,14.07
2018-08-17T04:48:48.960Z,17.13
2018-08-17T04:51:17.486Z,16.13
2018-08-17T04:53:45.992Z,15.50
2018-08-17T04:56:15.114Z,15.07
2018-08-17T04:58:43.661Z,13.23
2018-08-17T05:01:12.188Z,16.87
2018-08-17T05:03:40.710Z,18.30
2018-08-17T05:06:09.347Z,16.27
2018-08-17T05:08:37.967Z,16.87
2018-08-17T05:11:06.556Z,14.27
2018-08-17T05:13:35.102Z,16.70
2018-08-17T05:16:03.574Z,16.77
2018-08-17T05:18:32.143Z,16.03
2018-08-17T05:21:00.681Z,9.67
2018-08-17T05:23:29.213Z,14.17
2018-08-17T05:25:57.763Z,13.13
2018-08-17T05:28:26.281Z,15.40
2018-08-17T05:30:54.831Z,16.77
2018-08-17T05:33:23.335Z,17.03
2018-08-17T05:35:51.944Z,13.23
2018-08-17T05:38:20.638Z,14.43
2018-08-17T05:40:49.182Z,19.00
2018-08-17T05:43:17.729Z,16.93
2018-08-17T05:45:46.257Z,14.30
2018-08-17T05:48:14.873Z,21.43
2018-08-17T05:50:43.416Z,17.50
2018-08-17T05:53:11.973Z,16.67
2018-08-17T05:55:40.548Z,19.60
2018-08-17T05:58:09.193Z,18.27
2018-08-17T06:00:37.942Z,14.70
2018-08-17T06:03:06.501Z,15.17
2018-08-17T06:05:35.202Z,15.70
2018-08-17T06:08:03.831Z,14.30
2018-08-17T06:10:32.269Z,16.33
2018-08-17T06:13:00.853Z,13.20
2018-08-17T06:15:30.035Z,13.03
2018-08-17T06:17:58.640Z,18.27
2018-08-17T06:20:27.216Z,16.57
2018-08-17T06:22:55.814Z,23.17
2018-08-17T06:25:24.385Z,23.67
2018-08-17T06:27:53.040Z,18.50
2018-08-17T06:30:21.532Z,10.83
2018-08-17T06:32:50.089Z,14.00
2018-08-17T06:35:18.777Z,19.03
2018-08-17T06:37:47.426Z,15.17
2018-08-17T06:40:16.186Z,20.70
2018-08-17T06:42:45.536Z,14.50
2018-08-17T06:45:15.301Z,23.23
2018-08-17T06:47:43.996Z,26.53
2018-08-17T06:50:12.921Z,16.27
2018-08-17T06:52:42.507Z,17.40
2018-08-17T06:55:11.938Z,15.70
2018-08-17T06:57:40.964Z,19.23
2018-08-17T07:00:12.866Z,17.37
2018-08-17T07:02:42.189Z,17.80
2018-08-17T07:05:10.696Z,21.90
2018-08-17T07:07:39.669Z,25.53
2018-08-17T07:10:10.028Z,17.90
2018-08-17T07:12:39.138Z,17.87
2018-08-17T07:15:08.464Z,17.77
2018-08-17T07:17:37.057Z,15.80
2018-08-17T07:20:06.462Z,16.93
2018-08-17T07:22:34.977Z,17.93
2018-08-17T07:25:04.488Z,14.67
2018-08-17T07:27:33.025Z,10.53
2018-08-17T07:30:01.527Z,13.23
2018-08-17T07:32:30.618Z,13.20
2018-08-17T07:34:59.904Z,15.80
2018-08-17T07:37:29.702Z,12.80
2018-08-17T07:39:58.509Z,11.63
2018-08-17T07:42:28.000Z,13.20
2018-08-17T07:44:56.812Z,10.57
2018-08-17T07:47:26.416Z,10.10
2018-08-17T07:49:55.153Z,9.67
2018-08-17T07:52:23.849Z,10.50
2018-08-17T07:54:52.581Z,9.23
2018-08-17T07:57:21.285Z,7.60
2018-08-17T07:59:49.936Z,7.00
2018-08-17T08:02:18.748Z,5.67
2018-08-17T08:04:49.043Z,11.77
2018-08-17T08:07:17.750Z,10.13
2018-08-17T08:09:50.372Z,8.70
2018-08-17T08:12:19.103Z,9.33
2018-08-17T08:14:48.821Z,3.67
2018-08-17T08:17:17.461Z,6.73
2018-08-17T08:19:52.173Z,4.57
2018-08-17T08:22:21.466Z,5.67
2018-08-17T08:24:52.378Z,4.80
2018-08-17T08:27:21.045Z,7.77
2018-08-17T08:29:49.719Z,11.13
2018-08-17T08:32:18.522Z,7.17
2018-08-17T08:34:48.467Z,6.40
2018-08-17T08:37:17.609Z,8.37
2018-08-17T08:39:49.536Z,3.67
2018-08-17T08:42:18.331Z,4.43
2018-08-17T08:44:47.017Z,4.40
2018-08-17T08:47:15.680Z,6.63
2018-08-17T08:49:44.242Z,9.23
2018-08-17T08:52:13.160Z,7.53
2018-08-17T08:54:42.199Z,8.27
2018-08-17T08:57:10.793Z,7.60
2018-08-17T08:59:39.571Z,7.33
2018-08-17T09:02:08.977Z,8.53
2018-08-17T09:04:37.635Z,6.30
2018-08-17T09:07:06.864Z,4.43
2018-08-17T09:09:35.362Z,11.37
2018-08-17T09:12:03.927Z,8.50
2018-08-17T09:14:32.394Z,5.80
2018-08-17T09:17:00.905Z,4.70
2018-08-17T09:19:29.445Z,8.50
2018-08-17T09:21:57.945Z,6.60
2018-08-17T09:24:26.425Z,6.80
2018-08-17T09:26:54.968Z,10.33
2018-08-17T09:29:23.436Z,5.83
2018-08-17T09:31:51.914Z,6.77
2018-08-17T09:34:20.454Z,5.90
2018-08-17T09:36:48.943Z,4.43
2018-08-17T09:39:17.435Z,6.43
2018-08-17T09:41:45.949Z,3.57
2018-08-17T09:44:14.421Z,5.67
2018-08-17T09:46:43.208Z,3.13
2018-08-17T09:49:11.750Z,5.30
2018-08-17T09:51:40.570Z,7.77
2018-08-17T09:54:09.057Z,3.40
2018-08-17T09:56:38.091Z,3.77
2018-08-17T09:59:06.808Z,5.90
2018-08-17T10:01:40.490Z,7.20
2018-08-17T10:04:14.540Z,4.10
2018-08-17T10:06:48.393Z,6.60
2018-08-17T10:09:22.290Z,6.23
2018-08-17T10:11:51.780Z,6.15
2018-08-17T10:14:20.944Z,5.00
2018-08-17T10:16:49.629Z,5.87
2018-08-17T10:19:18.148Z,4.97
2018-08-17T10:21:53.755Z,6.23
2018-08-17T10:24:22.672Z,5.87
2018-08-17T10:26:52.167Z,6.67
2018-08-17T10:29:21.363Z,5.73
2018-08-17T10:31:50.399Z,4.67
2018-08-17T10:34:19.521Z,4.17
2018-08-17T10:36:47.987Z,4.83
2018-08-17T10:39:16.692Z,7.40
2018-08-17T10:41:45.268Z,5.63
2018-08-17T10:44:13.771Z,6.60
2018-08-17T10:46:42.952Z,5.50
2018-08-17T10:49:11.933Z,7.23
2018-08-17T10:51:40.997Z,5.43
2018-08-17T10:54:09.647Z,6.47
2018-08-17T10:56:38.389Z,3.83
2018-08-17T10:59:06.855Z,6.13
2018-08-17T11:01:35.444Z,4.13
2018-08-17T11:04:04.058Z,4.12
2018-08-17T11:06:32.538Z,4.08
2018-08-17T11:09:01.805Z,5.83
2018-08-17T11:11:30.248Z,23.80
2018-08-17T11:13:58.737Z,22.90
2018-08-17T11:16:27.215Z,5.37
2018-08-17T11:18:55.645Z,4.17
2018-08-17T11:21:24.633Z,4.87
2018-08-17T11:23:53.105Z,5.13
2018-08-17T11:26:22.808Z,3.60
2018-08-17T11:28:51.334Z,3.72
2018-08-17T11:31:19.880Z,7.65
2018-08-17T11:33:48.404Z,6.10
2018-08-17T11:36:18.228Z,2.27
2018-08-17T11:38:47.445Z,3.17
2018-08-17T11:41:15.979Z,4.33
2018-08-17T11:43:44.479Z,5.67
2018-08-17T11:46:13.033Z,3.08
2018-08-17T11:48:41.524Z,4.80
2018-08-17T11:51:10.056Z,4.55
2018-08-17T11:53:38.647Z,5.67
2018-08-17T11:56:07.114Z,5.30
2018-08-17T11:58:35.575Z,6.50
2018-08-17T12:01:11.842Z,6.17
2018-08-17T12:03:40.282Z,5.92
2018-08-17T12:06:08.966Z,6.47
2018-08-17T12:08:37.519Z,3.30
2018-08-17T12:11:07.284Z,7.25
2018-08-17T12:13:38.727Z,6.93
2018-08-17T12:16:10.690Z,4.17
2018-08-17T12:18:39.224Z,5.47
2018-08-17T12:21:07.654Z,5.20
2018-08-17T12:23:36.183Z,5.78
2018-08-17T12:26:04.687Z,3.60
2018-08-17T12:28:33.233Z,6.30
2018-08-17T12:31:01.760Z,3.52
2018-08-17T12:33:30.409Z,3.98
2018-08-17T12:35:59.026Z,4.33
2018-08-17T12:38:27.505Z,5.62
2018-08-17T12:40:57.159Z,10.00
2018-08-17T12:43:27.996Z,6.85
2018-08-17T12:45:56.542Z,4.00
2018-08-17T12:48:25.187Z,3.80
2018-08-17T12:50:53.688Z,5.30
2018-08-17T12:53:23.157Z,5.67
2018-08-17T12:55:51.790Z,3.67
2018-08-17T12:58:20.389Z,4.50
2018-08-17T13:00:48.968Z,5.55
2018-08-17T13:03:17.914Z,4.22
2018-08-17T13:05:46.501Z,3.37
2018-08-17T13:08:14.981Z,3.72
2018-08-17T13:10:43.673Z,8.83
2018-08-17T13:13:12.277Z,6.50
2018-08-17T13:16:14.410Z,3.15
2018-08-17T13:18:43.733Z,5.12
2018-08-17T13:21:12.279Z,3.58
2018-08-17T13:23:40.823Z,4.37
2018-08-17T13:26:09.323Z,6.17
2018-08-17T13:28:37.913Z,4.58
2018-08-17T13:31:06.479Z,3.72
2018-08-17T13:33:35.130Z,4.50
2018-08-17T13:36:03.815Z,4.20
2018-08-17T13:38:32.386Z,4.92
2018-08-17T13:41:00.914Z,3.85
2018-08-17T13:43:29.513Z,5.17
2018-08-17T13:46:06.870Z,3.05
2018-08-17T13:48:39.395Z,4.40
2018-08-17T13:51:08.033Z,6.05
2018-08-17T13:53:36.998Z,6.55
2018-08-17T13:56:05.577Z,5.93
2018-08-17T13:58:34.034Z,4.67
2018-08-17T14:01:02.502Z,5.10
2018-08-17T14:03:31.395Z,6.25
2018-08-17T14:05:59.884Z,6.67
2018-08-17T14:08:28.330Z,5.80
2018-08-17T14:10:56.974Z,4.42
2018-08-17T14:13:25.709Z,4.37
2018-08-17T14:15:54.328Z,5.78
2018-08-17T14:18:22.881Z,5.28
2018-08-17T14:20:51.356Z,5.15
2018-08-17T14:23:20.104Z,5.95
2018-08-17T14:25:48.557Z,5.00
2018-08-17T14:28:17.079Z,6.15
2018-08-17T14:30:45.650Z,4.42
2018-08-17T14:33:14.264Z,3.15
2018-08-17T14:35:43.058Z,4.87
2018-08-17T14:38:11.576Z,5.75
2018-08-17T14:40:40.100Z,3.42
2018-08-17T14:43:08.535Z,4.45
2018-08-17T14:45:37.066Z,7.17
2018-08-17T14:48:06.159Z,6.15
2018-08-17T14:50:35.593Z,5.55
2018-08-17T14:53:04.107Z,6.75
2018-08-17T14:55:32.622Z,4.70
2018-08-17T14:58:01.091Z,5.65
2018-08-17T15:00:29.600Z,3.35
2018-08-17T15:02:58.127Z,8.93
2018-08-17T15:05:26.673Z,4.03
2018-08-17T15:07:55.143Z,4.92
2018-08-17T15:10:25.493Z,6.00
2018-08-17T15:12:54.943Z,3.37
2018-08-17T15:15:23.448Z,4.37
2018-08-17T15:17:52.332Z,4.10
2018-08-17T15:20:20.783Z,3.10
2018-08-17T15:22:49.404Z,5.22
2018-08-17T15:25:18.017Z,4.45
2018-08-17T15:27:46.569Z,2.90
2018-08-17T15:30:15.087Z,4.42
2018-08-17T15:32:43.637Z,4.42
2018-08-17T15:35:12.174Z,6.25
2018-08-17T15:37:41.144Z,5.87
2018-08-17T15:40:11.455Z,3.80
2018-08-17T15:42:40.496Z,5.12
2018-08-17T15:45:09.760Z,3.77
2018-08-17T15:47:38.298Z,3.52
2018-08-17T15:50:14.955Z,4.95
2018-08-17T15:52:43.896Z,4.75
2018-08-17T15:55:12.636Z,3.80
2018-08-17T15:57:41.248Z,4.65
2018-08-17T16:00:11.737Z,4.25
2018-08-17T16:02:40.301Z,4.00
2018-08-17T16:05:08.780Z,4.10
2018-08-17T16:07:37.377Z,3.75
2018-08-17T16:10:06.694Z,3.35
2018-08-17T16:12:35.174Z,4.13
2018-08-17T16:15:03.823Z,4.00
2018-08-17T16:17:32.312Z,4.95
2018-08-17T16:20:00.750Z,4.53
2018-08-17T16:22:29.547Z,5.65
2018-08-17T16:24:58.004Z,3.05
2018-08-17T16:27:26.567Z,4.45
2018-08-17T16:29:55.089Z,3.33
2018-08-17T16:32:23.905Z,3.95
2018-08-17T16:34:52.493Z,3.47
2018-08-17T16:37:21.644Z,5.53
2018-08-17T16:39:55.721Z,3.77
2018-08-17T16:42:29.742Z,3.37
2018-08-17T16:44:58.293Z,5.87
2018-08-17T16:47:26.995Z,4.03
2018-08-17T16:49:55.647Z,9.08
2018-08-17T16:52:24.303Z,4.77
2018-08-17T16:54:53.501Z,4.72
2018-08-17T16:57:21.973Z,5.40
2018-08-17T16:59:50.542Z,6.97
2018-08-17T17:02:19.014Z,4.97
2018-08-17T17:04:47.517Z,5.80
2018-08-17T17:07:16.144Z,7.57
2018-08-17T17:09:44.748Z,4.13
2018-08-17T17:12:18.015Z,3.27
2018-08-17T17:14:46.811Z,3.50
2018-08-17T17:17:16.000Z,4.43
2018-08-17T17:19:44.529Z,5.27
2018-08-17T17:22:13.013Z,5.37
2018-08-17T17:24:43.109Z,7.90
2018-08-17T17:27:11.628Z,4.17
2018-08-17T17:29:40.148Z,4.20
2018-08-17T17:32:08.938Z,5.03
2018-08-17T17:34:37.434Z,2.37
2018-08-17T17:37:06.114Z,4.87
2018-08-17T17:39:35.327Z,5.43
2018-08-17T17:42:03.910Z,5.30
2018-08-17T17:44:32.619Z,6.60
2018-08-17T17:47:01.265Z,3.90
2018-08-17T17:49:29.775Z,4.50
2018-08-17T17:51:58.214Z,4.87
2018-08-17T17:54:26.665Z,3.17
2018-08-17T17:57:00.485Z,2.97
2018-08-17T17:59:29.004Z,5.93
2018-08-17T18:01:57.546Z,5.10
2018-08-17T18:04:31.256Z,6.37
2018-08-17T18:06:59.944Z,2.93
2018-08-17T18:09:28.391Z,3.73
2018-08-17T18:11:56.905Z,2.23
2018-08-17T18:14:25.440Z,7.67
2018-08-17T18:16:53.999Z,5.53
2018-08-17T18:19:25.389Z,5.90
2018-08-17T18:21:58.162Z,4.50
2018-08-17T18:24:26.725Z,3.27
2018-08-17T18:26:55.409Z,4.93
2018-08-17T18:29:24.057Z,3.97
2018-08-17T18:31:52.693Z,5.83
2018-08-17T18:34:21.699Z,4.57
2018-08-17T18:36:50.267Z,5.67
2018-08-17T18:39:18.804Z,4.83
2018-08-17T18:41:48.136Z,5.53
2018-08-17T18:44:17.370Z,4.63
2018-08-17T18:46:45.985Z,6.87
2018-08-17T18:49:15.793Z,8.03
2018-08-17T18:51:45.236Z,5.37
2018-08-17T18:54:15.150Z,2.30
2018-08-17T18:56:43.747Z,6.27
2018-08-17T18:59:12.550Z,5.17
2018-08-17T19:01:41.329Z,7.13
2018-08-17T19:04:09.929Z,3.10
2018-08-17T19:06:38.481Z,5.73
2018-08-17T19:09:08.433Z,5.60
2018-08-17T19:11:37.274Z,7.97
2018-08-17T19:14:05.736Z,4.60
2018-08-17T19:16:34.280Z,5.50
2018-08-17T19:19:03.159Z,9.40
2018-08-17T19:21:32.034Z,4.23
2018-08-17T19:24:00.754Z,4.00
2018-08-17T19:26:29.307Z,5.87
2018-08-17T19:28:57.831Z,6.00
2018-08-17T19:31:26.617Z,7.10
2018-08-17T19:33:55.301Z,5.47
2018-08-17T19:36:24.155Z,4.90
2018-08-17T19:38:52.865Z,8.67
2018-08-17T19:41:21.875Z,6.23
2018-08-17T19:43:50.660Z,4.70
2018-08-17T19:46:19.589Z,5.07
2018-08-17T19:48:49.230Z,8.63
2018-08-17T19:51:19.604Z,4.03
2018-08-17T19:53:48.417Z,9.97
2018-08-17T19:56:17.339Z,6.93
2018-08-17T19:58:45.977Z,7.40
2018-08-17T20:01:14.637Z,7.87
2018-08-17T20:03:43.843Z,4.67
2018-08-17T20:06:12.468Z,7.87
2018-08-17T20:08:41.104Z,5.57
2018-08-17T20:11:09.727Z,6.17
2018-08-17T20:13:38.443Z,5.97
2018-08-17T20:16:16.526Z,9.27
2018-08-17T20:18:45.225Z,5.03
2018-08-17T20:21:13.848Z,10.40
2018-08-17T20:23:43.366Z,7.07
2018-08-17T20:26:12.314Z,5.40
2018-08-17T20:28:52.350Z,10.57
2018-08-17T20:31:23.243Z,5.10
2018-08-17T20:33:52.572Z,6.90
2018-08-17T20:36:22.377Z,4.43
2018-08-17T20:38:51.493Z,4.40
2018-08-17T20:41:20.925Z,7.43
2018-08-17T20:43:49.600Z,8.27
2018-08-17T20:46:19.372Z,8.23
2018-08-17T20:48:58.297Z,9.67
2018-08-17T20:51:27.820Z,7.13
2018-08-17T20:53:59.550Z,10.07
2018-08-17T20:56:29.278Z,5.37
2018-08-17T20:58:58.663Z,7.20
2018-08-17T21:01:27.385Z,6.47
2018-08-17T21:03:56.066Z,7.50
2018-08-17T21:06:25.042Z,6.73
2018-08-17T21:08:53.697Z,8.70
2018-08-17T21:11:22.371Z,7.43
2018-08-17T21:13:50.965Z,5.70
2018-08-17T21:16:19.573Z,7.57
2018-08-17T21:18:48.200Z,10.50
2018-08-17T21:21:16.783Z,8.03
2018-08-17T21:23:46.284Z,4.73
2018-08-17T21:26:14.799Z,8.57
2018-08-17T21:28:43.429Z,5.20
2018-08-17T21:31:12.024Z,10.53
2018-08-17T21:33:42.265Z,6.47
2018-08-17T21:36:10.871Z,6.80
2018-08-17T21:38:39.546Z,7.20
2018-08-17T21:41:09.093Z,8.80
2018-08-17T21:43:38.316Z,11.37
2018-08-17T21:46:07.109Z,7.33
2018-08-17T21:48:38.212Z,10.13
2018-08-17T21:51:07.157Z,9.63
2018-08-17T21:53:35.767Z,9.03
2018-08-17T21:56:04.715Z,9.73
2018-08-17T21:58:37.220Z,10.90
2018-08-17T22:01:06.077Z,8.07
2018-08-17T22:03:37.326Z,6.57
2018-08-17T22:06:05.905Z,9.33
2018-08-17T22:08:34.403Z,9.87
2018-08-17T22:11:02.971Z,8.93
2018-08-17T22:13:33.593Z,8.67
2018-08-17T22:16:02.456Z,9.60
2018-08-17T22:18:31.431Z,9.33
2018-08-17T22:21:00.025Z,9.77
2018-08-17T22:23:29.134Z,9.23
2018-08-17T22:25:57.781Z,9.20
2018-08-17T22:28:26.390Z,12.03
2018-08-17T22:30:55.029Z,9.93
2018-08-17T22:33:23.571Z,14.40
2018-08-17T22:35:52.098Z,11.73
2018-08-17T22:38:20.617Z,13.97
2018-08-17T22:40:49.145Z,10.30
2018-08-17T22:43:17.657Z,8.17
2018-08-17T22:45:46.434Z,7.77
2018-08-17T22:48:15.090Z,13.40
2018-08-17T22:50:43.526Z,8.97
2018-08-17T22:53:12.083Z,11.00
2018-08-17T22:55:40.567Z,12.40
2018-08-17T22:58:09.117Z,13.30
2018-08-17T23:00:37.645Z,13.70
2018-08-17T23:03:06.151Z,7.13
2018-08-17T23:05:36.693Z,13.97
2018-08-17T23:08:05.418Z,11.20
2018-08-17T23:10:33.914Z,13.73
2018-08-17T23:13:02.494Z,14.73
2018-08-17T23:15:30.960Z,9.53
2018-08-17T23:18:00.599Z,5.77
2018-08-17T23:20:36.274Z,12.37
2018-08-17T23:23:05.947Z,10.03
2018-08-17T23:25:34.522Z,12.13
2018-08-17T23:28:03.077Z,9.90
2018-08-17T23:30:31.598Z,11.37
2018-08-17T23:33:00.224Z,12.23
2018-08-17T23:35:28.803Z,10.57
2018-08-17T23:37:57.966Z,13.63
2018-08-17T23:40:26.609Z,13.97
2018-08-17T23:42:55.188Z,7.80
2018-08-17T23:45:23.708Z,8.83
2018-08-17T23:47:52.430Z,12.77
2018-08-17T23:50:20.972Z,13.47
2018-08-17T23:52:49.558Z,9.23
2018-08-17T23:55:18.627Z,10.57
2018-08-17T23:57:47.086Z,15.27
